»·PEaware :: N14KE KSBP-KSMO

N14KE :: KSBP-KSMO

FLIGHT INFORMATION

Flight Status: Arrived
Operator: Privately registered:
United States
More flights under this callsign
Pilot: Christopher G. (29028)
Aircraft: CESSNA 172 SKYHAWK
(C172)
More flights by this aircraft type
Origin: KSBP San Luis Co Regl
United States
Destination: KSMO Santa Monica Mun
United States
More flights between these airports :: More routes between these airports
Route: RZS V186 DARTS
File this flight plan on PilotEdge
Remarks:
Altitude:
(Current/Filed)
7,000ft
Speed:
(Current/Filed)
110kts
Departed: 16-Apr-20 07:56 AM
Arrived: 16-Apr-20 09:56 AM
Distance/Time
Traveled:
131nm/2:00
Distance/Time
To Go:
Arrived

Flight Plot

Page will automatically refresh every two minutes.


Map Options




Map Legend


Flown Route
Filed Route
Departure Airport
Arrival Airport
Navaid (VOR, NDB)
Fix

Horizontal Profiles

Position Reports

Time Latitude Longitude Heading Altitude Ground
Speed
16-Apr-20 07:32 35.238403 -120.639824 311 216ft 0kts
16-Apr-20 07:33 35.238403 -120.639824 311 216ft 0kts
16-Apr-20 07:34 35.238403 -120.639824 311 216ft 0kts
16-Apr-20 07:35 35.238403 -120.639824 311 216ft 0kts
16-Apr-20 07:36 35.238403 -120.639824 311 216ft 0kts
16-Apr-20 07:37 35.238403 -120.639824 311 216ft 0kts
16-Apr-20 07:38 35.238403 -120.639824 311 216ft 0kts
16-Apr-20 07:39 35.238403 -120.639824 311 216ft 0kts
16-Apr-20 07:40 35.238403 -120.639824 311 216ft 0kts
16-Apr-20 07:41 35.238403 -120.639824 311 216ft 0kts
16-Apr-20 07:42 35.238403 -120.639824 311 216ft 0kts
16-Apr-20 07:43 35.238403 -120.639824 311 216ft 0kts
16-Apr-20 07:44 35.238403 -120.639824 311 216ft 0kts
16-Apr-20 07:45 35.238403 -120.639824 311 216ft 0kts
16-Apr-20 07:46 35.238403 -120.639824 311 216ft 0kts
16-Apr-20 07:47 35.238403 -120.639824 311 216ft 0kts
16-Apr-20 07:48 35.238403 -120.639824 311 216ft 0kts
16-Apr-20 07:49 35.238403 -120.639824 311 216ft 0kts
16-Apr-20 07:50 35.238445 -120.639900 279 216ft 0kts
16-Apr-20 07:51 35.239467 -120.642908 305 216ft 30kts
16-Apr-20 07:52 35.242480 -120.648445 257 216ft 2kts
16-Apr-20 07:53 35.242480 -120.648446 257 216ft 0kts
16-Apr-20 07:54 35.242479 -120.648449 252 216ft 0kts
16-Apr-20 07:55 35.240465 -120.646646 125 216ft 56kts
16-Apr-20 07:56 35.233990 -120.634747 127 570ft 79kts
16-Apr-20 07:57 35.221767 -120.632563 191 1000ft 87kts
16-Apr-20 07:58 35.196788 -120.638194 192 1498ft 96kts
16-Apr-20 07:59 35.189144 -120.639797 191 1902ft 80kts
16-Apr-20 08:00 35.182632 -120.641052 191 2200ft 75kts
16-Apr-20 08:01 35.176101 -120.642716 191 2499ft 71kts
16-Apr-20 08:02 35.170559 -120.644502 191 2692ft 76kts
16-Apr-20 08:03 35.165109 -120.646233 191 2861ft 80kts
16-Apr-20 08:04 35.159573 -120.647964 191 3047ft 82kts
16-Apr-20 08:06 35.153740 -120.649758 191 3246ft 82kts
16-Apr-20 08:07 35.145956 -120.652101 191 3512ft 82kts
16-Apr-20 08:08 35.137851 -120.653211 161 3780ft 82kts
16-Apr-20 08:09 35.133492 -120.647689 117 3983ft 88kts
16-Apr-20 08:10 35.131074 -120.639299 112 4211ft 90kts
16-Apr-20 08:11 35.128178 -120.627293 109 4527ft 91kts
16-Apr-20 08:12 35.123603 -120.615926 133 4846ft 88kts
16-Apr-20 08:13 35.116377 -120.605507 135 5187ft 88kts
16-Apr-20 08:14 35.108433 -120.594282 135 5548ft 89kts
16-Apr-20 08:15 35.100127 -120.582626 135 5912ft 90kts
16-Apr-20 08:16 35.091527 -120.570610 136 6275ft 90kts
16-Apr-20 08:17 35.082578 -120.558138 136 6640ft 91kts
16-Apr-20 08:18 35.073524 -120.545548 135 6977ft 95kts
16-Apr-20 08:19 35.062922 -120.530960 134 7010ft 119kts
16-Apr-20 08:20 35.051172 -120.514727 134 7006ft 119kts
16-Apr-20 08:21 35.041406 -120.501206 134 7008ft 117kts
16-Apr-20 08:22 35.032477 -120.488834 134 7009ft 116kts
16-Apr-20 08:23 35.023895 -120.476940 133 7009ft 116kts
16-Apr-20 08:23 35.016750 -120.467034 133 7010ft 116kts
16-Apr-20 08:25 35.006302 -120.452554 133 7010ft 116kts
16-Apr-20 08:26 34.995155 -120.437111 133 7010ft 116kts
16-Apr-20 08:26 34.985946 -120.424358 133 7010ft 116kts
16-Apr-20 08:28 34.973300 -120.406852 133 7010ft 116kts
16-Apr-20 08:28 34.963927 -120.393884 133 7010ft 116kts
16-Apr-20 08:29 34.952626 -120.378254 133 7010ft 116kts
16-Apr-20 08:31 34.939882 -120.360636 133 7010ft 116kts
16-Apr-20 08:31 34.931592 -120.349181 134 7009ft 116kts
16-Apr-20 08:32 34.920514 -120.333881 134 7008ft 115kts
16-Apr-20 08:34 34.909378 -120.318507 133 7008ft 115kts
16-Apr-20 08:34 34.901953 -120.308259 133 7008ft 115kts
16-Apr-20 08:35 34.893041 -120.295964 133 7008ft 115kts
16-Apr-20 08:36 34.884098 -120.283629 133 7008ft 115kts
16-Apr-20 08:37 34.880373 -120.278492 133 7008ft 115kts
16-Apr-20 08:39 34.870562 -120.264970 133 7008ft 115kts
16-Apr-20 08:39 34.860231 -120.250736 133 7008ft 115kts
16-Apr-20 08:40 34.848021 -120.233922 133 7008ft 115kts
16-Apr-20 08:41 34.838232 -120.220448 133 7008ft 115kts
16-Apr-20 08:42 34.824538 -120.201586 132 7010ft 125kts
16-Apr-20 08:43 34.809593 -120.180995 132 7009ft 134kts
16-Apr-20 08:44 34.793458 -120.158799 131 7009ft 136kts
16-Apr-20 08:45 34.776936 -120.136095 131 7008ft 137kts
16-Apr-20 08:46 34.760959 -120.114156 131 7008ft 138kts
16-Apr-20 08:47 34.744779 -120.091957 131 7008ft 137kts
16-Apr-20 08:48 34.728836 -120.070099 131 7008ft 137kts
16-Apr-20 08:49 34.713089 -120.048521 131 7008ft 137kts
16-Apr-20 08:50 34.696978 -120.026461 131 7008ft 137kts
16-Apr-20 08:51 34.680841 -120.004380 131 7008ft 137kts
16-Apr-20 08:52 34.664373 -119.981864 131 7007ft 138kts
16-Apr-20 08:53 34.648005 -119.959499 131 7006ft 138kts
16-Apr-20 08:54 34.631098 -119.936412 130 7004ft 138kts
16-Apr-20 08:55 34.614229 -119.913392 130 7002ft 138kts
16-Apr-20 08:56 34.597083 -119.890009 130 7001ft 138kts
16-Apr-20 08:57 34.578889 -119.865214 130 6999ft 138kts
16-Apr-20 08:58 34.559736 -119.839131 130 6997ft 138kts
16-Apr-20 08:59 34.539432 -119.811503 129 6994ft 138kts
16-Apr-20 09:00 34.519705 -119.784680 129 6992ft 138kts
16-Apr-20 09:01 34.502055 -119.756347 126 6999ft 134kts
16-Apr-20 09:02 34.488143 -119.731094 126 7000ft 133kts
16-Apr-20 09:03 34.474641 -119.706342 126 7000ft 133kts
16-Apr-20 09:04 34.461209 -119.681639 126 7000ft 133kts
16-Apr-20 09:05 34.448453 -119.658157 126 7000ft 133kts
16-Apr-20 09:06 34.435031 -119.633452 126 7000ft 133kts
16-Apr-20 09:07 34.420478 -119.606680 126 7000ft 133kts
16-Apr-20 09:08 34.404671 -119.577623 126 7000ft 133kts
16-Apr-20 09:09 34.387530 -119.546141 126 6999ft 133kts
16-Apr-20 09:10 34.368631 -119.511487 120 6995ft 133kts
16-Apr-20 09:11 34.349580 -119.476590 121 6996ft 137kts
16-Apr-20 09:12 34.329017 -119.438876 121 6995ft 138kts
16-Apr-20 09:13 34.319641 -119.395366 85 6993ft 135kts
16-Apr-20 09:14 34.322208 -119.348472 83 6992ft 136kts
16-Apr-20 09:15 34.325661 -119.300614 83 6991ft 136kts
16-Apr-20 09:16 34.329362 -119.251363 83 6990ft 136kts
16-Apr-20 09:17 34.336343 -119.249266 13 3947ft 133kts
16-Apr-20 09:18 34.339597 -119.221494 81 4716ft 93kts
16-Apr-20 09:19 34.333595 -119.196556 119 5447ft 92kts
16-Apr-20 09:20 34.335331 -119.172187 82 6286ft 58kts
16-Apr-20 09:21 34.337008 -119.146503 88 6785ft 83kts
16-Apr-20 09:22 34.332506 -119.118147 114 7165ft 114kts
16-Apr-20 09:23 34.332691 -119.081639 71 7217ft 134kts
16-Apr-20 09:24 34.342499 -119.041125 77 6991ft 144kts
16-Apr-20 09:25 34.347621 -118.998891 82 6990ft 140kts
16-Apr-20 09:26 34.351250 -118.955558 83 6990ft 141kts
16-Apr-20 09:27 34.354522 -118.912039 83 6991ft 141kts
16-Apr-20 09:28 34.351808 -118.868977 109 6990ft 142kts
16-Apr-20 09:29 34.338697 -118.828300 112 6991ft 143kts
16-Apr-20 09:30 34.325206 -118.788644 112 6991ft 143kts
16-Apr-20 09:31 34.311787 -118.749305 111 6985ft 143kts
16-Apr-20 09:32 34.298363 -118.709992 111 6987ft 143kts
16-Apr-20 09:33 34.285107 -118.671219 111 6988ft 142kts
16-Apr-20 09:34 34.272051 -118.632941 107 6995ft 141kts
16-Apr-20 09:35 34.268597 -118.591382 91 6997ft 139kts
16-Apr-20 09:36 34.265900 -118.550459 91 6997ft 138kts
16-Apr-20 09:37 34.262999 -118.509022 91 6997ft 137kts
16-Apr-20 09:38 34.260080 -118.469956 91 6996ft 136kts
16-Apr-20 09:39 34.256835 -118.428646 91 6995ft 135kts
16-Apr-20 09:40 34.248307 -118.391463 135 6992ft 139kts
16-Apr-20 09:41 34.224170 -118.362458 128 6657ft 132kts
16-Apr-20 09:42 34.204809 -118.336116 135 6119ft 121kts
16-Apr-20 09:43 34.185156 -118.309322 135 5644ft 121kts
16-Apr-20 09:44 34.165230 -118.282413 136 5169ft 121kts
16-Apr-20 09:45 34.138698 -118.291411 221 4724ft 123kts
16-Apr-20 09:46 34.118972 -118.316721 226 4171ft 115kts
16-Apr-20 09:47 34.102528 -118.338418 225 3257ft 105kts
16-Apr-20 09:48 34.089257 -118.355937 224 2778ft 76kts
16-Apr-20 09:49 34.077777 -118.371045 224 2164ft 72kts
16-Apr-20 09:50 34.066941 -118.385249 224 1638ft 84kts
16-Apr-20 09:51 34.054495 -118.401980 227 1278ft 84kts
16-Apr-20 09:52 34.042045 -118.419472 225 834ft 72kts
16-Apr-20 09:53 34.031490 -118.433471 223 460ft 70kts
16-Apr-20 09:54 34.020308 -118.446279 221 206ft 61kts
16-Apr-20 09:55 34.014505 -118.452617 170 179ft 22kts
16-Apr-20 09:56 34.014251 -118.452364 127 179ft 0kts
16-Apr-20 09:57 34.014349 -118.451892 54 179ft 11kts
16-Apr-20 09:58 34.018323 -118.446773 349 179ft 2kts
16-Apr-20 09:59 34.018336 -118.446799 294 179ft 0kts
16-Apr-20 10:00 34.018336 -118.446799 294 179ft 0kts

Navigation Log

Ident Type
Flight plan parsing failed, navigation log unavailable